SLC weather

Salt Lake City International Airport
Salt Lake City, Utah, United States

Public forecast

Using degrees Fahrenheit for public forecast. Weather courtesy of forecast.io.

Current aviation weather report (METAR) for Salt Lake City International Airport

Retrieved 2020/04/01 10:54 UTC (25 minutes ago):

KSLC 011054Z 32011KT 10SM BKN090 BKN110 06/01 A2981 RMK AO2 SLP069 T00610006

Aviation forecast (TAF) for Salt Lake City International Airport

Retrieved 2020/04/01 06:30 UTC (5 hours ago):

TAF KSLC 010529Z 0106/0212 32007KT P6SM VCSH SCT060 BKN100 FM010900 31008KT P6SM SCT060 BKN100 FM011900 33010G18KT P6SM SCT060 BKN100 FM020200 34010KT P6SM VCSH BKN050 OVC100 FM020800 32008KT P6SM SCT060 BKN100